Time;durP1;ratioP1;P1;durP2;ratioP2;P2;SDS_P1;SDS_P2;PMS_P1;PMS_P2;Temp;Humidity;BMP_temperature;BMP_pressure;BME280_temperature;BME280_humidity;BME280_pressure;Samples;Min_cycle;Max_cycle;Signal;HPM_P1;HPM_P2
2023/09/15 00:00:25;;;;;;;18.33;14.18;;;16.50;99.90;;;;;;7600176;19;20883;-74
2023/09/15 00:02:59;;;;;;;21.08;12.25;;;16.50;99.90;;;;;;7585351;19;20077;-74
2023/09/15 00:05:33;;;;;;;19.63;12.77;;;16.50;99.90;;;;;;7608059;19;20018;-74
2023/09/15 00:08:06;;;;;;;17.20;13.07;;;16.50;99.90;;;;;;7601162;19;20022;-75
2023/09/15 00:10:41;;;;;;;25.05;12.88;;;16.40;99.90;;;;;;7595436;19;20022;-74
2023/09/15 00:13:15;;;;;;;18.70;13.02;;;16.40;99.90;;;;;;7608323;19;20236;-74
2023/09/15 00:15:50;;;;;;;19.88;13.45;;;16.40;99.90;;;;;;7607357;19;20970;-72
2023/09/15 00:18:25;;;;;;;15.95;12.60;;;16.30;99.90;;;;;;7601179;19;20071;-72
2023/09/15 00:20:57;;;;;;;22.67;13.10;;;16.20;99.90;;;;;;7593693;19;20014;-71
2023/09/15 00:23:31;;;;;;;19.15;12.85;;;16.20;99.90;;;;;;7596504;19;20401;-71
2023/09/15 00:26:04;;;;;;;21.25;12.88;;;16.20;99.90;;;;;;7608781;19;20637;-71
2023/09/15 00:28:36;;;;;;;;;;;16.10;99.90;;;;;;7603169;19;20047;-72
2023/09/15 00:31:10;;;;;;;16.45;11.48;;;16.00;99.90;;;;;;7591165;19;19918;-72
2023/09/15 00:33:43;;;;;;;20.73;12.73;;;16.00;99.90;;;;;;7602649;19;20653;-72
2023/09/15 00:36:16;;;;;;;18.20;11.85;;;15.90;99.90;;;;;;7598152;19;21161;-73
2023/09/15 00:38:48;;;;;;;20.23;12.27;;;15.80;99.90;;;;;;7592047;19;20102;-73
2023/09/15 00:41:22;;;;;;;16.00;11.02;;;15.70;99.90;;;;;;7599484;19;21174;-74
2023/09/15 00:43:54;;;;;;;19.85;12.50;;;15.70;99.90;;;;;;7599685;19;20956;-72
2023/09/15 00:46:26;;;;;;;18.73;12.18;;;15.70;99.90;;;;;;7595685;19;20739;-74
2023/09/15 00:48:59;;;;;;;15.13;11.30;;;15.60;99.90;;;;;;7592439;19;20014;-73
2023/09/15 00:51:32;;;;;;;15.90;10.77;;;15.70;99.90;;;;;;7599093;19;20028;-72
2023/09/15 00:54:08;;;;;;;15.40;11.13;;;15.60;99.90;;;;;;7596203;19;21012;-75
2023/09/15 00:56:41;;;;;;;19.88;11.68;;;15.50;99.90;;;;;;7591313;19;20033;-74
2023/09/15 00:59:13;;;;;;;16.27;11.48;;;15.50;99.90;;;;;;7601306;19;20478;-74
2023/09/15 01:01:47;;;;;;;20.88;11.55;;;15.40;99.90;;;;;;7591318;19;20026;-72
2023/09/15 01:04:20;;;;;;;17.15;10.98;;;15.40;99.90;;;;;;7591361;19;20018;-71
2023/09/15 01:06:55;;;;;;;19.70;11.30;;;15.40;99.90;;;;;;7600939;19;20018;-72
2023/09/15 01:09:27;;;;;;;17.17;10.10;;;15.30;99.90;;;;;;7596190;19;20630;-72
2023/09/15 01:11:59;;;;;;;14.15;10.35;;;15.30;99.90;;;;;;7600443;19;20039;-75
2023/09/15 01:14:33;;;;;;;16.67;10.60;;;15.30;99.90;;;;;;7597835;19;20010;-74
2023/09/15 01:17:43;;;;;;;14.07;10.35;;;15.10;99.90;;;;;;7583987;19;20014;-75
2023/09/15 01:20:33;;;;;;;16.50;11.27;;;15.10;99.90;;;;;;7598642;19;20053;-73
2023/09/15 01:23:42;;;;;;;18.98;11.40;;;15.10;99.90;;;;;;7592197;19;20385;-73
2023/09/15 01:26:40;;;;;;;26.27;11.57;;;15.00;99.90;;;;;;7602359;19;20505;-74
2023/09/15 01:29:38;;;;;;;18.52;10.80;;;14.90;99.90;;;;;;7593640;19;20751;-74
2023/09/15 01:32:12;;;;;;;26.98;12.07;;;14.90;99.90;;;;;;7593190;19;20102;-73
2023/09/15 01:34:52;;;;;;;17.83;11.05;;;14.90;99.90;;;;;;7597848;19;20023;-73
2023/09/15 01:37:24;;;;;;;18.17;11.10;;;14.80;99.90;;;;;;7599900;19;20026;-74
2023/09/15 01:39:59;;;;;;;15.57;10.32;;;14.80;99.90;;;;;;7593983;19;20018;-73
2023/09/15 01:42:32;;;;;;;17.02;10.05;;;14.80;99.90;;;;;;7597796;19;20022;-75
2023/09/15 01:45:05;;;;;;;12.35;9.10;;;14.70;99.90;;;;;;7572052;19;20014;-74
2023/09/15 01:47:39;;;;;;;16.05;11.38;;;14.80;99.90;;;;;;7593673;19;20553;-75
2023/09/15 01:50:12;;;;;;;20.10;11.40;;;14.70;99.90;;;;;;7594181;19;20122;-71
2023/09/15 01:52:45;;;;;;;16.90;12.00;;;14.70;99.90;;;;;;7595270;19;20569;-73
2023/09/15 01:55:19;;;;;;;16.95;11.68;;;14.70;99.90;;;;;;7590117;19;20488;-70
2023/09/15 01:57:51;;;;;;;18.98;13.48;;;14.60;99.90;;;;;;7598213;19;20022;-74
2023/09/15 02:00:23;;;;;;;21.42;14.55;;;14.60;99.90;;;;;;7592069;19;21574;-71
2023/09/15 02:02:56;;;;;;;20.13;14.20;;;14.60;99.90;;;;;;7573166;19;20081;-74
2023/09/15 02:05:28;;;;;;;20.55;14.13;;;14.60;99.90;;;;;;7595663;19;20028;-73
2023/09/15 02:08:01;;;;;;;23.30;15.10;;;14.60;99.90;;;;;;7583147;19;20007;-75
2023/09/15 02:10:33;;;;;;;20.70;13.90;;;14.70;99.90;;;;;;7585853;19;20343;-72
2023/09/15 02:13:06;;;;;;;22.97;14.87;;;14.60;99.90;;;;;;7579388;19;20413;-71
2023/09/15 02:15:39;;;;;;;21.15;15.52;;;14.60;99.90;;;;;;7582215;19;20041;-74
2023/09/15 02:18:12;;;;;;;23.02;15.57;;;14.60;99.90;;;;;;7591751;19;20053;-73
2023/09/15 02:20:52;;;;;;;23.52;16.70;;;14.60;99.90;;;;;;7590494;19;20045;-74
2023/09/15 02:23:24;;;;;;;22.88;15.30;;;14.60;99.90;;;;;;7589523;19;20716;-74
2023/09/15 02:25:56;;;;;;;29.70;17.27;;;14.60;99.90;;;;;;7596835;19;20018;-72
2023/09/15 02:28:29;;;;;;;26.60;17.17;;;14.60;99.90;;;;;;7586068;19;20817;-72
2023/09/15 02:31:04;;;;;;;25.42;17.27;;;14.60;99.90;;;;;;7591665;19;20372;-72
2023/09/15 02:33:37;;;;;;;26.85;17.27;;;14.60;99.90;;;;;;7578484;19;20630;-71
2023/09/15 02:36:10;;;;;;;26.98;17.52;;;14.60;99.90;;;;;;7606196;19;20026;-76
2023/09/15 02:38:42;;;;;;;27.73;17.13;;;14.60;99.90;;;;;;7611836;19;20030;-74
2023/09/15 02:41:14;;;;;;;28.48;17.88;;;14.60;99.90;;;;;;7606196;19;20653;-74
2023/09/15 02:43:47;;;;;;;24.40;16.90;;;14.60;99.90;;;;;;7604254;19;21396;-75
2023/09/15 02:46:20;;;;;;;27.38;16.40;;;14.50;99.90;;;;;;7597049;19;20023;-75
2023/09/15 02:48:53;;;;;;;26.90;17.38;;;14.50;99.90;;;;;;7605861;19;20538;-75
2023/09/15 02:51:26;;;;;;;26.20;15.77;;;14.50;99.90;;;;;;7575631;19;20022;-72
2023/09/15 02:53:59;;;;;;;28.00;18.13;;;14.40;99.90;;;;;;7599708;19;20019;-72
2023/09/15 02:56:32;;;;;;;30.17;15.88;;;14.40;99.90;;;;;;7596301;19;20018;-74
2023/09/15 02:59:05;;;;;;;23.13;15.20;;;14.40;99.90;;;;;;7592758;19;20014;-74
2023/09/15 03:01:37;;;;;;;21.23;14.40;;;14.40;99.90;;;;;;7602674;19;20015;-74
2023/09/15 03:04:10;;;;;;;28.45;17.55;;;14.40;99.90;;;;;;7591533;19;20014;-73
2023/09/15 03:06:43;;;;;;;25.70;16.17;;;14.50;99.90;;;;;;7600655;19;20031;-75
2023/09/15 03:09:15;;;;;;;26.52;17.38;;;14.50;99.90;;;;;;7595865;19;20646;-73
2023/09/15 03:11:49;;;;;;;31.45;19.05;;;14.50;99.90;;;;;;7607189;19;20527;-71
2023/09/15 03:14:22;;;;;;;33.73;19.40;;;14.50;99.90;;;;;;7590562;19;20213;-73
2023/09/15 03:16:55;;;;;;;32.53;20.88;;;14.60;99.90;;;;;;7602876;19;20018;-74
2023/09/15 03:19:28;;;;;;;40.77;22.90;;;14.60;99.90;;;;;;7593732;19;20082;-71
2023/09/15 03:22:00;;;;;;;42.65;22.92;;;14.60;99.90;;;;;;7602592;19;20949;-74
2023/09/15 03:24:34;;;;;;;44.30;23.85;;;14.60;99.90;;;;;;7593676;19;20011;-75
2023/09/15 03:27:06;;;;;;;38.95;23.83;;;14.70;99.90;;;;;;7603331;19;20565;-74
2023/09/15 03:29:39;;;;;;;38.13;23.33;;;14.70;99.90;;;;;;7602904;19;20025;-75
2023/09/15 03:32:11;;;;;;;36.85;23.35;;;14.70;99.90;;;;;;7592753;19;20015;-73
2023/09/15 03:34:44;;;;;;;44.72;25.20;;;14.70;99.90;;;;;;7596993;19;20028;-72
2023/09/15 03:37:17;;;;;;;44.17;22.75;;;14.70;99.90;;;;;;7598071;19;20011;-71
2023/09/15 03:39:49;;;;;;;40.40;23.87;;;14.70;99.90;;;;;;7594601;19;20578;-73
2023/09/15 03:42:22;;;;;;;37.97;21.17;;;14.80;99.90;;;;;;7587834;19;20472;-71
2023/09/15 03:44:54;;;;;;;42.45;21.10;;;14.80;99.90;;;;;;7590358;19;20007;-72
2023/09/15 03:47:27;;;;;;;36.33;21.23;;;14.80;99.90;;;;;;7585705;19;20021;-75
2023/09/15 03:49:59;;;;;;;41.38;23.98;;;14.80;99.90;;;;;;7607365;19;20018;-72
2023/09/15 03:52:31;;;;;;;37.05;22.50;;;14.80;99.90;;;;;;7595755;19;20022;-75
2023/09/15 03:55:04;;;;;;;39.75;22.83;;;14.80;99.90;;;;;;7586499;19;20633;-73
2023/09/15 03:57:37;;;;;;;48.60;26.52;;;14.80;99.90;;;;;;7585263;19;20014;-73
2023/09/15 04:00:15;;;;;;;;;;;14.80;99.90;;;;;;7588207;19;20491;-73
2023/09/15 04:02:48;;;;;;;46.33;27.95;;;14.80;99.90;;;;;;7592258;19;19934;-73
2023/09/15 04:05:21;;;;;;;53.95;30.48;;;14.80;99.90;;;;;;7583093;19;20022;-73
2023/09/15 04:07:53;;;;;;;63.25;32.67;;;14.80;99.90;;;;;;7598974;19;20499;-73
2023/09/15 04:10:26;;;;;;;60.50;31.90;;;14.80;99.90;;;;;;7591683;19;20130;-73
2023/09/15 04:12:58;;;;;;;65.87;33.53;;;14.80;99.90;;;;;;7601588;19;20018;-72
2023/09/15 04:15:31;;;;;;;59.42;33.50;;;14.70;99.90;;;;;;7589032;19;20689;-73
2023/09/15 04:18:07;;;;;;;68.33;36.17;;;14.80;99.90;;;;;;7595561;19;20021;-73
2023/09/15 04:20:40;;;;;;;57.50;33.08;;;14.80;99.90;;;;;;7586469;19;20019;-73
2023/09/15 04:23:19;;;;;;;67.50;32.95;;;14.80;99.90;;;;;;7586037;19;20470;-75
2023/09/15 04:25:51;;;;;;;70.03;34.17;;;14.80;99.90;;;;;;7585085;19;20957;-72
2023/09/15 04:28:24;;;;;;;64.18;31.70;;;14.70;99.90;;;;;;7584910;19;20020;-72
2023/09/15 04:30:57;;;;;;;59.38;32.80;;;14.70;99.90;;;;;;7560781;19;20024;-72
2023/09/15 04:33:30;;;;;;;63.05;30.50;;;14.60;99.90;;;;;;7584060;19;20018;-71
2023/09/15 04:36:03;;;;;;;66.28;31.70;;;14.60;99.90;;;;;;7582381;19;21041;-72
2023/09/15 04:38:35;;;;;;;74.15;30.48;;;14.60;99.90;;;;;;7587008;19;20780;-71
2023/09/15 04:41:08;;;;;;;60.15;31.02;;;14.60;99.90;;;;;;7599620;19;20608;-72
2023/09/15 04:43:40;;;;;;;71.25;30.85;;;14.60;99.90;;;;;;7587547;19;20048;-72
2023/09/15 04:46:13;;;;;;;55.70;31.98;;;14.60;99.90;;;;;;7591473;19;20052;-72
2023/09/15 04:48:45;;;;;;;93.30;34.63;;;14.60;99.90;;;;;;7581929;19;20011;-71
2023/09/15 04:51:18;;;;;;;88.80;33.67;;;14.60;99.90;;;;;;7592181;19;20026;-72
2023/09/15 04:53:52;;;;;;;;;;;14.60;99.90;;;;;;7597410;19;20646;-72
2023/09/15 04:56:24;;;;;;;58.30;30.17;;;14.60;99.90;;;;;;7601457;19;19910;-72
2023/09/15 04:58:56;;;;;;;59.97;32.38;;;14.60;99.90;;;;;;7600478;19;20049;-72
2023/09/15 05:01:30;;;;;;;56.00;32.35;;;14.60;99.90;;;;;;7584853;19;20010;-72
2023/09/15 05:04:03;;;;;;;78.53;35.05;;;14.60;99.90;;;;;;7593052;19;20119;-74
2023/09/15 05:06:36;;;;;;;69.85;34.58;;;14.60;99.90;;;;;;7587419;19;20357;-73
2023/09/15 05:09:10;;;;;;;;;;;14.70;99.90;;;;;;7594434;19;20014;-70
2023/09/15 05:11:42;;;;;;;67.57;31.55;;;14.60;99.90;;;;;;7586960;19;19915;-73
2023/09/15 05:14:14;;;;;;;62.90;31.92;;;14.60;99.90;;;;;;7580716;19;20010;-74
2023/09/15 05:16:47;;;;;;;71.75;31.67;;;14.70;99.90;;;;;;7558404;19;20273;-74
2023/09/15 05:19:20;;;;;;;53.97;28.98;;;14.60;99.90;;;;;;7584038;19;20069;-73
2023/09/15 05:21:52;;;;;;;64.50;29.65;;;14.60;99.90;;;;;;7567502;19;22031;-73
2023/09/15 05:24:25;;;;;;;69.45;28.60;;;14.60;99.90;;;;;;7600854;19;20014;-72
2023/09/15 05:26:58;;;;;;;51.97;27.30;;;14.60;99.90;;;;;;7569842;19;20055;-74
2023/09/15 05:29:30;;;;;;;54.50;28.48;;;14.60;99.90;;;;;;7583001;19;20062;-74
2023/09/15 05:32:03;;;;;;;59.45;29.55;;;14.60;99.90;;;;;;7572858;19;20014;-74
2023/09/15 05:34:35;;;;;;;63.20;28.53;;;14.60;99.90;;;;;;7583432;19;20025;-74
2023/09/15 05:37:07;;;;;;;49.72;27.65;;;14.60;99.90;;;;;;7582895;19;20440;-73
2023/09/15 05:39:39;;;;;;;59.72;30.17;;;14.60;99.90;;;;;;7581436;19;20476;-74
2023/09/15 05:42:12;;;;;;;77.53;31.60;;;14.60;99.90;;;;;;7596942;19;20690;-74
2023/09/15 05:44:44;;;;;;;55.15;28.38;;;14.60;99.90;;;;;;7590471;19;20524;-74
2023/09/15 05:47:16;;;;;;;53.55;28.05;;;14.60;99.90;;;;;;7594258;19;20579;-73
2023/09/15 05:49:49;;;;;;;67.72;29.45;;;14.60;99.90;;;;;;7599821;19;20034;-74
2023/09/15 05:52:21;;;;;;;75.15;31.75;;;14.60;99.90;;;;;;7587523;19;20048;-73
2023/09/15 05:54:53;;;;;;;63.22;30.85;;;14.60;99.90;;;;;;7592051;19;20990;-75
2023/09/15 05:57:26;;;;;;;71.93;31.65;;;14.70;99.90;;;;;;7584570;19;20018;-73
2023/09/15 05:59:58;;;;;;;62.40;29.98;;;14.60;99.90;;;;;;7601382;19;20603;-74
2023/09/15 06:02:30;;;;;;;73.53;32.72;;;14.60;99.90;;;;;;7600086;19;20022;-74
2023/09/15 06:05:02;;;;;;;70.18;33.58;;;14.70;99.90;;;;;;7592159;19;20015;-73
2023/09/15 06:07:36;;;;;;;69.68;32.75;;;14.60;99.90;;;;;;7601378;19;20910;-74
2023/09/15 06:10:09;;;;;;;67.20;33.45;;;14.70;99.90;;;;;;7595841;19;20022;-74
2023/09/15 06:12:42;;;;;;;68.47;34.40;;;14.70;99.90;;;;;;7597261;19;20018;-75
2023/09/15 06:15:15;;;;;;;65.55;32.38;;;14.70;99.90;;;;;;7595560;19;20697;-74
2023/09/15 06:17:48;;;;;;;60.20;31.77;;;14.70;99.90;;;;;;7592145;19;21093;-74
2023/09/15 06:20:20;;;;;;;64.47;32.88;;;14.90;99.90;;;;;;7598093;19;20011;-74
2023/09/15 06:22:52;;;;;;;54.80;30.52;;;14.90;99.90;;;;;;7570408;19;20445;-74
2023/09/15 06:25:25;;;;;;;54.30;30.50;;;14.90;99.90;;;;;;7600480;19;20029;-74
2023/09/15 06:27:59;;;;;;;63.70;32.27;;;14.90;99.90;;;;;;7594425;19;20014;-76
2023/09/15 06:30:35;;;;;;;57.05;30.80;;;15.00;99.90;;;;;;7597375;19;20094;-75
2023/09/15 06:33:07;;;;;;;55.65;31.17;;;15.00;99.90;;;;;;7585771;19;20472;-74
2023/09/15 06:35:40;;;;;;;51.35;28.38;;;15.00;99.90;;;;;;7588898;19;20466;-74
2023/09/15 06:38:12;;;;;;;52.63;28.95;;;15.00;99.90;;;;;;7592655;19;20035;-74
2023/09/15 06:40:45;;;;;;;55.20;28.87;;;15.10;99.90;;;;;;7599811;19;20358;-74
2023/09/15 06:43:17;;;;;;;53.05;29.23;;;15.10;99.90;;;;;;7587567;19;20018;-75
2023/09/15 06:45:49;;;;;;;48.53;27.80;;;15.10;99.90;;;;;;7601494;19;20022;-73
2023/09/15 06:48:22;;;;;;;45.73;27.00;;;15.20;99.90;;;;;;7590096;19;20022;-74
2023/09/15 06:50:54;;;;;;;46.63;26.38;;;15.20;99.90;;;;;;7592860;19;20068;-75
2023/09/15 06:53:26;;;;;;;53.30;29.08;;;15.20;99.90;;;;;;7584845;19;20041;-74
2023/09/15 06:55:58;;;;;;;48.47;27.15;;;15.20;99.90;;;;;;7598594;19;20021;-74
2023/09/15 06:58:31;;;;;;;50.15;27.70;;;15.20;99.90;;;;;;7591297;19;20051;-73
2023/09/15 07:01:04;;;;;;;51.80;28.23;;;15.30;99.90;;;;;;7580310;19;20010;-74
2023/09/15 07:03:36;;;;;;;48.80;27.92;;;15.30;99.90;;;;;;7582912;19;20018;-74
2023/09/15 07:06:08;;;;;;;48.33;27.77;;;15.40;99.90;;;;;;7590856;19;20027;-74
2023/09/15 07:08:40;;;;;;;43.60;26.30;;;15.40;99.90;;;;;;7583608;19;20014;-74
2023/09/15 07:11:13;;;;;;;46.17;26.37;;;15.50;99.90;;;;;;7534862;19;20068;-73
2023/09/15 07:13:45;;;;;;;46.05;26.50;;;15.50;99.90;;;;;;7572677;19;20021;-74
2023/09/15 07:16:22;;;;;;;42.42;25.52;;;15.60;99.90;;;;;;7581921;19;20014;-73
2023/09/15 07:18:54;;;;;;;43.92;26.20;;;15.60;99.90;;;;;;7607520;19;21061;-73
2023/09/15 07:21:26;;;;;;;41.90;25.33;;;15.60;99.90;;;;;;7610030;19;20018;-73
2023/09/15 07:23:59;;;;;;;43.05;24.50;;;15.60;99.90;;;;;;7607019;19;20504;-73
2023/09/15 07:26:31;;;;;;;34.33;22.15;;;15.60;99.90;;;;;;7612416;19;20065;-73
2023/09/15 07:29:04;;;;;;;38.33;23.10;;;15.60;99.90;;;;;;7609810;19;20019;-73
2023/09/15 07:31:37;;;;;;;42.75;25.30;;;15.70;99.90;;;;;;7607323;19;20018;-73
2023/09/15 07:34:09;;;;;;;38.33;22.88;;;15.70;99.90;;;;;;7610789;19;20484;-73
2023/09/15 07:36:43;;;;;;;37.58;22.92;;;15.70;99.90;;;;;;7604863;19;20048;-73
2023/09/15 07:39:15;;;;;;;38.95;23.35;;;15.70;99.90;;;;;;7610474;19;20102;-74
2023/09/15 07:41:48;;;;;;;37.83;21.88;;;15.80;99.90;;;;;;7603071;19;20059;-73
2023/09/15 07:44:20;;;;;;;36.05;22.08;;;15.80;99.90;;;;;;7609300;19;20025;-73
2023/09/15 07:46:53;;;;;;;37.50;22.30;;;15.90;99.90;;;;;;7606702;19;20867;-73
2023/09/15 07:49:25;;;;;;;34.05;21.08;;;15.90;99.90;;;;;;7610891;19;20014;-73
2023/09/15 07:51:58;;;;;;;33.05;20.58;;;16.00;99.90;;;;;;7607042;19;20586;-73
2023/09/15 07:54:30;;;;;;;30.98;20.15;;;16.10;99.90;;;;;;7604170;19;20416;-73
2023/09/15 07:57:03;;;;;;;31.05;19.70;;;16.20;99.90;;;;;;7606604;19;20530;-74
2023/09/15 07:59:36;;;;;;;34.70;20.85;;;16.30;99.90;;;;;;7597134;19;20020;-73
2023/09/15 08:02:08;;;;;;;31.65;19.17;;;16.20;99.90;;;;;;7585000;19;20018;-73
2023/09/15 08:04:41;;;;;;;35.08;20.30;;;16.30;99.90;;;;;;7593208;19;20015;-74
2023/09/15 08:07:13;;;;;;;28.25;18.73;;;16.40;99.90;;;;;;7600137;19;20411;-73
2023/09/15 08:09:46;;;;;;;24.55;17.25;;;16.50;99.90;;;;;;7586536;19;20038;-74
2023/09/15 08:12:19;;;;;;;26.50;17.75;;;16.50;99.90;;;;;;7600173;19;20022;-72
2023/09/15 08:14:51;;;;;;;26.10;17.42;;;16.60;99.90;;;;;;7598449;19;20018;-73
2023/09/15 08:17:24;;;;;;;26.58;18.02;;;16.60;99.90;;;;;;7602230;19;20021;-73
2023/09/15 08:20:05;;;;;;;24.40;16.13;;;16.70;99.90;;;;;;7598780;19;20023;-72
2023/09/15 08:22:38;;;;;;;25.15;17.13;;;16.70;99.90;;;;;;7607628;19;20014;-73
2023/09/15 08:25:11;;;;;;;24.40;16.33;;;16.80;99.90;;;;;;7600899;19;20021;-73
2023/09/15 08:27:44;;;;;;;29.50;16.87;;;16.90;99.90;;;;;;7599632;19;20030;-73
2023/09/15 08:30:16;;;;;;;22.97;15.20;;;16.90;99.90;;;;;;7611145;19;20014;-73
2023/09/15 08:32:49;;;;;;;21.15;15.15;;;16.90;99.90;;;;;;7601179;19;20599;-73
2023/09/15 08:35:21;;;;;;;21.65;14.93;;;17.00;99.90;;;;;;7600283;19;20049;-73
2023/09/15 08:37:53;;;;;;;23.58;15.40;;;17.10;99.90;;;;;;7606019;19;20079;-74
2023/09/15 08:40:37;;;;;;;25.15;15.95;;;17.10;99.90;;;;;;7604676;19;20019;-74
2023/09/15 08:43:10;;;;;;;23.63;15.63;;;17.20;99.90;;;;;;7600937;19;20021;-73
2023/09/15 08:45:47;;;;;;;22.38;15.15;;;17.20;99.90;;;;;;7602911;19;20547;-73
2023/09/15 08:48:29;;;;;;;22.98;15.25;;;17.20;99.90;;;;;;7605462;19;20028;-73
2023/09/15 08:51:03;;;;;;;22.08;15.07;;;17.30;99.90;;;;;;7599080;19;20020;-73
2023/09/15 08:53:36;;;;;;;22.35;15.18;;;17.50;99.90;;;;;;7600178;19;20053;-73
2023/09/15 08:56:09;;;;;;;23.13;15.57;;;17.50;99.90;;;;;;7599109;19;21296;-74
2023/09/15 08:58:42;;;;;;;23.75;15.02;;;17.50;99.90;;;;;;7603871;19;20022;-72
2023/09/15 09:01:18;;;;;;;23.75;14.63;;;17.60;99.90;;;;;;7607395;19;20021;-73
2023/09/15 09:03:50;;;;;;;23.85;14.10;;;17.70;99.90;;;;;;7607247;19;20167;-74
2023/09/15 09:06:24;;;;;;;21.20;13.93;;;17.80;99.90;;;;;;7611424;19;20017;-74
2023/09/15 09:08:56;;;;;;;;;;;17.70;99.90;;;;;;7605600;19;20024;-74
2023/09/15 09:11:29;;;;;;;20.02;12.88;;;17.70;99.90;;;;;;7614383;19;19956;-73
2023/09/15 09:14:04;;;;;;;18.08;12.93;;;17.80;99.90;;;;;;7602048;19;20492;-73
2023/09/15 09:16:47;;;;;;;19.58;14.65;;;18.00;99.90;;;;;;7614310;19;20030;-74
2023/09/15 09:19:19;;;;;;;15.77;12.30;;;18.10;99.90;;;;;;7604599;19;20022;-73
2023/09/15 09:22:00;;;;;;;16.42;12.77;;;18.30;99.90;;;;;;7604954;19;20029;-74
2023/09/15 09:24:37;;;;;;;18.50;12.18;;;18.30;99.90;;;;;;5771794;19;10001065;-74
2023/09/15 09:27:10;;;;;;;16.88;12.20;;;18.30;99.90;;;;;;7585228;19;20371;-74
2023/09/15 09:29:42;;;;;;;20.42;12.27;;;18.30;99.90;;;;;;7592899;19;20013;-74
2023/09/15 09:32:15;;;;;;;19.58;12.75;;;18.50;99.90;;;;;;7601073;19;20475;-73
2023/09/15 09:34:51;;;;;;;21.08;12.50;;;18.50;99.90;;;;;;7578217;19;20014;-74
2023/09/15 09:37:26;;;;;;;17.85;12.25;;;18.60;99.90;;;;;;7595341;19;20381;-74
2023/09/15 09:39:59;;;;;;;18.17;11.35;;;18.80;99.90;;;;;;7596538;19;20350;-73
2023/09/15 09:42:33;;;;;;;18.17;12.57;;;18.90;99.90;;;;;;7611937;19;20018;-73
2023/09/15 09:45:07;;;;;;;15.57;10.85;;;19.00;99.90;;;;;;7604390;19;20443;-74
2023/09/15 09:47:40;;;;;;;;;;;19.10;99.90;;;;;;7598368;19;20022;-73
2023/09/15 09:50:12;;;;;;;19.67;11.80;;;19.20;99.90;;;;;;7591697;19;19941;-74
2023/09/15 09:52:45;;;;;;;17.10;10.52;;;19.20;99.90;;;;;;7594085;19;20069;-73
2023/09/15 09:55:17;;;;;;;17.08;10.75;;;19.30;99.90;;;;;;7602897;19;20045;-74
2023/09/15 09:57:50;;;;;;;17.35;11.82;;;19.40;99.90;;;;;;7605013;19;20050;-74
2023/09/15 10:00:22;;;;;;;14.15;10.85;;;19.50;99.90;;;;;;7598218;19;20014;-74
2023/09/15 10:02:55;;;;;;;15.35;11.95;;;19.60;99.90;;;;;;7598725;19;20026;-73
2023/09/15 10:05:30;;;;;;;14.27;10.70;;;19.60;99.90;;;;;;7602367;19;20516;-74
2023/09/15 10:08:03;;;;;;;15.02;11.63;;;19.60;99.90;;;;;;7596041;19;20041;-73
2023/09/15 10:10:41;;;;;;;;;;;19.80;99.90;;;;;;7607107;19;20558;-73
2023/09/15 10:13:14;;;;;;;15.63;9.82;;;19.80;99.90;;;;;;7607206;19;19922;-73
2023/09/15 10:15:48;;;;;;;18.13;12.23;;;20.00;99.90;;;;;;7606923;19;20014;-73
2023/09/15 10:18:21;;;;;;;17.55;11.65;;;20.00;99.90;;;;;;7610789;19;20785;-73
2023/09/15 10:20:55;;;;;;;14.25;10.98;;;20.10;99.90;;;;;;7607246;19;21608;-74
2023/09/15 10:23:30;;;;;;;13.63;10.30;;;20.20;99.90;;;;;;7609171;19;20614;-74
2023/09/15 10:26:04;;;;;;;14.05;10.15;;;20.10;99.90;;;;;;7601793;19;20026;-73
2023/09/15 10:28:37;;;;;;;11.82;9.35;;;20.10;99.90;;;;;;7605495;19;20014;-73
2023/09/15 10:31:29;;;;;;;14.77;10.32;;;20.20;99.90;;;;;;7602333;19;20396;-73
2023/09/15 10:34:04;;;;;;;14.43;9.68;;;20.20;99.90;;;;;;7598545;19;20021;-72
2023/09/15 10:36:39;;;;;;;20.52;11.45;;;20.20;99.90;;;;;;7604499;19;20033;-74
2023/09/15 10:39:17;;;;;;;15.10;11.50;;;20.30;99.90;;;;;;7605617;19;20050;-73
2023/09/15 10:41:50;;;;;;;16.27;12.02;;;20.40;99.90;;;;;;7609324;19;20480;-73
2023/09/15 10:44:29;;;;;;;14.93;11.13;;;20.40;99.90;;;;;;7608173;19;20010;-73
2023/09/15 10:47:02;;;;;;;13.55;11.02;;;20.40;99.90;;;;;;7610566;19;20397;-74
2023/09/15 10:49:34;;;;;;;13.47;11.10;;;20.60;99.90;;;;;;7612691;19;20018;-73
2023/09/15 10:52:07;;;;;;;15.38;9.98;;;20.70;99.90;;;;;;7609345;19;20275;-73
2023/09/15 10:54:40;;;;;;;14.75;11.35;;;20.80;99.90;;;;;;7613432;19;20017;-74
2023/09/15 10:57:14;;;;;;;13.32;10.50;;;20.90;99.90;;;;;;7616195;19;20503;-73
2023/09/15 10:59:50;;;;;;;14.20;10.70;;;21.00;99.90;;;;;;7620735;19;20496;-73
2023/09/15 11:02:25;;;;;;;12.85;11.15;;;21.10;99.90;;;;;;7614605;19;20015;-73
2023/09/15 11:04:59;;;;;;;13.25;10.80;;;21.20;99.90;;;;;;7617144;19;20027;-74
2023/09/15 11:07:34;;;;;;;12.90;10.10;;;21.20;99.90;;;;;;7619652;19;20022;-73
2023/09/15 11:10:09;;;;;;;11.73;9.23;;;21.30;99.90;;;;;;7620686;19;21176;-73
2023/09/15 11:12:41;;;;;;;10.95;8.73;;;21.30;99.90;;;;;;7621800;19;20531;-74
2023/09/15 11:15:14;;;;;;;14.33;11.43;;;21.30;99.90;;;;;;7612940;19;20044;-74
2023/09/15 11:17:46;;;;;;;12.95;10.50;;;21.40;99.90;;;;;;7607332;19;20889;-73
2023/09/15 11:20:20;;;;;;;13.13;9.60;;;21.50;99.90;;;;;;7609742;19;20075;-72
2023/09/15 11:22:59;;;;;;;12.95;8.88;;;21.60;99.90;;;;;;7611648;19;20018;-73
2023/09/15 11:25:33;;;;;;;14.05;9.65;;;21.90;99.90;;;;;;7612063;19;20025;-73
2023/09/15 11:28:12;;;;;;;12.52;10.15;;;22.40;99.90;;;;;;7620036;19;20044;-73
2023/09/15 11:30:45;;;;;;;13.52;10.65;;;22.80;99.90;;;;;;7610705;19;20021;-73
2023/09/15 11:33:19;;;;;;;12.50;9.35;;;23.20;99.90;;;;;;7590691;19;20518;-73
2023/09/15 11:35:51;;;;;;;;;;;23.60;99.90;;;;;;7614998;19;20025;-72
2023/09/15 11:38:24;;;;;;;10.73;8.40;;;24.00;99.90;;;;;;7602741;19;19918;-73
2023/09/15 11:40:56;;;;;;;12.95;8.15;;;24.50;99.90;;;;;;7611131;19;20588;-74
2023/09/15 11:43:28;;;;;;;10.82;8.98;;;24.90;99.90;;;;;;7598877;19;20025;-73
2023/09/15 11:46:01;;;;;;;10.25;8.15;;;25.10;99.90;;;;;;7603946;19;20029;-72
2023/09/15 11:48:38;;;;;;;10.00;8.40;;;25.20;99.90;;;;;;7608091;19;20018;-71
2023/09/15 11:51:13;;;;;;;15.25;9.32;;;25.50;99.90;;;;;;7618513;19;20561;-73
2023/09/15 11:53:47;;;;;;;9.75;8.55;;;25.70;99.90;;;;;;7608855;19;20802;-72
2023/09/15 11:56:19;;;;;;;9.63;7.90;;;26.00;99.90;;;;;;7614040;19;20491;-74
2023/09/15 11:58:53;;;;;;;8.77;7.88;;;26.10;99.20;;;;;;7613344;19;20011;-72
2023/09/15 12:01:27;;;;;;;8.18;6.82;;;26.20;97.50;;;;;;7612845;19;20019;-71
2023/09/15 12:04:00;;;;;;;9.13;7.65;;;26.40;97.80;;;;;;7605450;19;20064;-72
2023/09/15 12:06:33;;;;;;;8.38;7.50;;;26.90;97.60;;;;;;7605609;19;20035;-72
2023/09/15 12:09:15;;;;;;;7.99;6.78;;;27.10;96.80;;;;;;7558210;19;10001052;-72
2023/09/15 12:11:47;;;;;;;8.40;7.07;;;27.50;96.50;;;;;;7590894;19;20299;-72
2023/09/15 12:14:20;;;;;;;8.55;7.70;;;27.50;95.90;;;;;;7605872;19;20011;-72
2023/09/15 12:16:57;;;;;;;7.80;7.00;;;27.60;95.60;;;;;;7609277;19;20833;-72
2023/09/15 12:19:29;;;;;;;10.52;7.53;;;27.60;94.90;;;;;;7613049;19;20021;-72
2023/09/15 12:22:02;;;;;;;8.13;7.28;;;28.00;95.20;;;;;;7607274;19;20055;-72
2023/09/15 12:24:36;;;;;;;8.00;6.60;;;28.30;95.10;;;;;;7599654;19;20019;-73
2023/09/15 12:27:11;;;;;;;7.43;6.72;;;28.50;94.00;;;;;;7600742;19;20038;-72
2023/09/15 12:29:44;;;;;;;9.48;7.43;;;29.00;93.20;;;;;;7608954;19;20267;-73
2023/09/15 12:32:16;;;;;;;9.57;7.57;;;29.10;92.40;;;;;;7611165;19;20018;-72
2023/09/15 12:34:49;;;;;;;8.05;6.85;;;29.10;92.00;;;;;;7609978;19;20646;-71
2023/09/15 12:37:22;;;;;;;7.60;6.80;;;29.20;91.70;;;;;;7613449;19;20022;-71
2023/09/15 12:39:55;;;;;;;7.78;6.97;;;29.20;91.30;;;;;;7609884;19;20022;-71
2023/09/15 12:42:27;;;;;;;8.15;6.55;;;29.20;89.80;;;;;;7612899;19;20535;-72
2023/09/15 12:45:00;;;;;;;10.60;7.35;;;29.20;89.70;;;;;;7614963;19;20025;-72
2023/09/15 12:47:33;;;;;;;7.18;5.90;;;29.30;87.90;;;;;;7618545;19;20018;-72
2023/09/15 12:50:06;;;;;;;7.32;6.63;;;29.20;88.50;;;;;;7616304;19;20092;-72
2023/09/15 12:52:38;;;;;;;8.65;6.22;;;29.50;87.60;;;;;;7614713;19;20010;-72
2023/09/15 12:55:11;;;;;;;8.93;6.97;;;29.70;86.70;;;;;;7604408;19;20026;-72
2023/09/15 12:57:44;;;;;;;9.80;6.50;;;29.70;88.00;;;;;;7605563;19;20010;-72
2023/09/15 13:00:17;;;;;;;5.93;5.40;;;29.80;86.40;;;;;;7579855;19;20011;-72
2023/09/15 13:02:50;;;;;;;6.32;5.57;;;30.30;86.20;;;;;;7610431;19;20483;-71